createdAt,value
2023-02-17T00:03:38.510Z,24.50
2023-02-17T00:08:40.566Z,24.10
2023-02-17T00:13:42.804Z,24.40
2023-02-17T00:18:45.045Z,24.40
2023-02-17T00:23:47.534Z,24.40
2023-02-17T00:28:49.691Z,24.30
2023-02-17T00:33:54.087Z,24.00
2023-02-17T00:38:57.073Z,24.20
2023-02-17T00:43:59.439Z,24.30
2023-02-17T00:49:01.462Z,23.70
2023-02-17T00:54:03.531Z,23.90
2023-02-17T00:59:09.004Z,23.90
2023-02-17T01:04:11.023Z,23.60
2023-02-17T01:09:13.820Z,23.60
2023-02-17T01:14:15.957Z,23.70
2023-02-17T01:19:19.361Z,23.30
2023-02-17T01:24:22.620Z,23.20
2023-02-17T01:29:24.656Z,23.50
2023-02-17T01:34:26.717Z,23.20
2023-02-17T01:39:28.878Z,23.40
2023-02-17T01:44:31.900Z,22.90
2023-02-17T01:49:37.729Z,23.00
2023-02-17T01:54:42.377Z,22.70
2023-02-17T01:59:45.118Z,23.00
2023-02-17T02:04:48.508Z,22.90
2023-02-17T02:09:53.711Z,23.10
2023-02-17T02:14:57.306Z,23.60
2023-02-17T02:19:59.308Z,23.50
2023-02-17T02:25:16.650Z,23.60
2023-02-17T02:30:22.329Z,23.30
2023-02-17T02:35:42.656Z,23.60
2023-02-17T02:40:47.537Z,23.60
2023-02-17T02:45:49.626Z,23.30
2023-02-17T02:51:10.456Z,23.90
2023-02-17T02:56:12.755Z,23.90
2023-02-17T03:01:27.242Z,24.10
2023-02-17T03:06:29.282Z,23.80
2023-02-17T03:11:34.080Z,24.40
2023-02-17T03:16:37.532Z,24.40
2023-02-17T03:21:39.586Z,24.40
2023-02-17T03:26:42.569Z,24.30
2023-02-17T03:31:44.755Z,24.50
2023-02-17T03:36:46.879Z,24.60
2023-02-17T03:41:51.521Z,24.70
2023-02-17T03:46:55.664Z,25.00
2023-02-17T03:51:59.424Z,25.40
2023-02-17T03:57:01.873Z,25.20
2023-02-17T04:02:04.130Z,25.40
2023-02-17T04:07:06.163Z,25.40
2023-02-17T04:12:08.301Z,25.40
2023-02-17T04:17:10.379Z,25.50
2023-02-17T04:22:12.448Z,25.70
2023-02-17T04:27:14.456Z,25.70
2023-02-17T04:32:16.535Z,25.80
2023-02-17T04:37:18.511Z,25.90
2023-02-17T04:42:20.516Z,25.80
2023-02-17T04:47:22.930Z,26.10
2023-02-17T04:52:24.945Z,25.90
2023-02-17T04:57:27.273Z,26.00
2023-02-17T05:02:30.435Z,26.20
2023-02-17T05:07:32.436Z,26.10
2023-02-17T05:12:35.436Z,26.00
2023-02-17T05:17:37.540Z,26.30
2023-02-17T05:22:39.549Z,26.30
2023-02-17T05:27:41.602Z,26.50
2023-02-17T05:32:43.617Z,26.60
2023-02-17T05:37:45.650Z,26.40
2023-02-17T05:42:47.834Z,26.50
2023-02-17T05:47:49.832Z,26.50
2023-02-17T05:52:52.071Z,26.60
2023-02-17T05:57:54.089Z,26.40
2023-02-17T06:02:56.230Z,26.30
2023-02-17T06:07:58.334Z,26.70
2023-02-17T06:13:00.351Z,26.80
2023-02-17T06:18:02.382Z,26.50
2023-02-17T06:23:04.450Z,27.00
2023-02-17T06:28:06.466Z,26.70
2023-02-17T06:33:08.546Z,27.00
2023-02-17T06:38:10.550Z,27.20
2023-02-17T06:43:12.560Z,27.10
2023-02-17T06:48:14.572Z,27.20
2023-02-17T06:53:16.611Z,27.20
2023-02-17T06:58:18.580Z,27.30
2023-02-17T07:03:20.634Z,27.30
2023-02-17T07:08:22.740Z,27.10
2023-02-17T07:13:24.783Z,27.40
2023-02-17T07:18:26.817Z,27.50
2023-02-17T07:23:28.824Z,27.60
2023-02-17T07:33:33.464Z,27.40
2023-02-17T07:38:36.052Z,27.80
2023-02-17T07:43:38.148Z,27.80
2023-02-17T07:48:40.733Z,27.40
2023-02-17T07:53:43.160Z,27.60
2023-02-17T07:58:45.218Z,27.80
2023-02-17T08:03:47.759Z,28.00
2023-02-17T08:09:08.503Z,27.70
2023-02-17T08:14:12.852Z,27.90
2023-02-17T08:19:15.299Z,27.80
2023-02-17T08:24:19.392Z,28.30
2023-02-17T08:29:21.751Z,28.10
2023-02-17T08:34:23.734Z,27.80
2023-02-17T08:39:27.102Z,27.80
2023-02-17T08:44:29.367Z,27.70
2023-02-17T08:49:32.617Z,28.00
2023-02-17T08:54:34.683Z,28.00
2023-02-17T08:59:36.802Z,28.00
2023-02-17T09:04:38.969Z,27.70
2023-02-17T09:09:41.294Z,27.80
2023-02-17T09:14:43.356Z,28.00
2023-02-17T09:19:45.439Z,27.80
2023-02-17T09:24:47.455Z,28.10
2023-02-17T09:29:49.566Z,27.90
2023-02-17T09:34:52.809Z,27.90
2023-02-17T09:39:54.901Z,28.00
2023-02-17T09:44:56.962Z,27.80
2023-02-17T09:50:04.453Z,28.10
2023-02-17T09:55:08.180Z,27.90
2023-02-17T10:00:17.342Z,28.00
2023-02-17T10:05:22.507Z,27.90
2023-02-17T10:10:27.924Z,28.10
2023-02-17T10:15:31.787Z,27.80
2023-02-17T10:20:42.302Z,28.10
2023-02-17T10:26:02.304Z,27.60
2023-02-17T10:31:07.487Z,27.60
2023-02-17T10:36:26.277Z,27.90
2023-02-17T10:41:34.416Z,27.70
2023-02-17T10:46:36.444Z,27.90
2023-02-17T10:51:38.429Z,27.90
2023-02-17T10:56:52.083Z,27.90
2023-02-17T11:01:57.571Z,27.50
2023-02-17T11:07:01.881Z,27.60
2023-02-17T11:12:10.600Z,27.20
2023-02-17T11:17:14.792Z,27.80
2023-02-17T11:22:29.815Z,27.20
2023-02-17T11:27:31.904Z,27.70
2023-02-17T11:32:34.116Z,27.10
2023-02-17T11:37:42.043Z,27.00
2023-02-17T11:42:44.036Z,26.30
2023-02-17T11:47:58.579Z,26.30
2023-02-17T11:53:17.715Z,27.00
2023-02-17T11:58:28.767Z,25.80
2023-02-17T12:03:42.366Z,25.70
2023-02-17T12:08:51.867Z,26.30
2023-02-17T12:14:10.681Z,25.40
2023-02-17T12:19:29.815Z,25.10
2023-02-17T12:24:31.820Z,25.40
2023-02-17T12:29:34.235Z,25.30
2023-02-17T12:34:44.024Z,25.60
2023-02-17T12:39:54.819Z,24.20
2023-02-17T12:44:59.307Z,24.30
2023-02-17T12:50:03.834Z,23.90
2023-02-17T12:55:12.060Z,24.00
2023-02-17T13:00:22.109Z,23.80
2023-02-17T13:05:42.461Z,23.80
2023-02-17T13:10:44.565Z,23.80
2023-02-17T13:15:46.919Z,23.90
2023-02-17T13:20:56.961Z,24.00
2023-02-17T13:26:11.292Z,24.00
2023-02-17T13:31:15.605Z,24.50
2023-02-17T13:36:37.903Z,24.40
2023-02-17T13:41:47.593Z,24.50
2023-02-17T13:46:50.574Z,24.70
2023-02-17T13:51:52.575Z,25.40
2023-02-17T13:56:56.074Z,24.80
2023-02-17T14:01:58.177Z,24.70
2023-02-17T14:07:03.722Z,24.70
2023-02-17T14:12:07.210Z,25.00
2023-02-17T14:17:26.902Z,24.40
2023-02-17T14:22:30.679Z,24.40
2023-02-17T14:27:46.170Z,25.00
2023-02-17T14:32:48.324Z,25.10
2023-02-17T14:37:50.492Z,24.60
2023-02-17T14:42:52.542Z,24.60
2023-02-17T14:47:54.618Z,24.80
2023-02-17T14:52:56.676Z,25.30
2023-02-17T14:57:58.725Z,24.90
2023-02-17T15:03:00.787Z,25.70
2023-02-17T15:08:02.890Z,25.30
2023-02-17T15:13:04.957Z,25.30
2023-02-17T15:18:07.013Z,25.70
2023-02-17T15:23:13.352Z,26.10
2023-02-17T15:28:16.904Z,25.80
2023-02-17T15:33:20.154Z,25.90
2023-02-17T15:38:22.848Z,26.10
2023-02-17T15:43:28.222Z,26.50
2023-02-17T15:48:30.760Z,26.30
2023-02-17T15:53:34.436Z,25.90
2023-02-17T15:58:36.529Z,26.40
2023-02-17T16:03:38.589Z,26.30
2023-02-17T16:08:40.664Z,26.30
2023-02-17T16:13:44.101Z,26.20
2023-02-17T16:18:46.648Z,26.50
2023-02-17T16:23:48.699Z,26.60
2023-02-17T16:28:50.712Z,26.40
2023-02-17T16:33:59.367Z,26.70
2023-02-17T16:39:03.907Z,26.60
2023-02-17T16:44:07.670Z,27.10
2023-02-17T16:49:20.923Z,26.70
2023-02-17T16:54:23.480Z,27.30
2023-02-17T16:59:26.038Z,27.00
2023-02-17T17:04:28.075Z,26.50
2023-02-17T17:09:30.744Z,26.40
2023-02-17T17:14:32.804Z,26.80
2023-02-17T17:19:34.871Z,27.10
2023-02-17T17:24:37.030Z,26.60
2023-02-17T17:29:39.045Z,27.00
2023-02-17T17:34:41.151Z,26.40
2023-02-17T17:39:43.170Z,26.80
2023-02-17T17:44:45.261Z,26.90
2023-02-17T17:49:47.374Z,27.10
2023-02-17T17:54:49.445Z,26.60
2023-02-17T17:59:51.866Z,27.00
2023-02-17T18:04:54.069Z,27.20
2023-02-17T18:09:56.248Z,26.80
2023-02-17T18:15:02.547Z,27.00
2023-02-17T18:20:05.588Z,27.10
2023-02-17T18:25:08.252Z,26.90
2023-02-17T18:30:11.460Z,26.80
2023-02-17T18:35:14.075Z,26.90
2023-02-17T18:40:18.350Z,26.90
2023-02-17T18:45:20.597Z,26.60
2023-02-17T18:50:22.641Z,26.50
2023-02-17T18:55:24.707Z,26.50
2023-02-17T19:00:26.787Z,27.00
2023-02-17T19:05:29.160Z,26.60
2023-02-17T19:10:31.174Z,26.50
2023-02-17T19:15:33.783Z,26.60
2023-02-17T19:20:35.899Z,26.50
2023-02-17T19:25:38.358Z,26.40
2023-02-17T19:30:40.421Z,26.90
2023-02-17T19:35:45.485Z,26.60
2023-02-17T19:40:47.720Z,26.90
2023-02-17T19:45:49.786Z,26.70
2023-02-17T19:50:52.442Z,26.50
2023-02-17T19:55:54.462Z,26.80
2023-02-17T20:01:03.274Z,26.80
2023-02-17T20:06:06.791Z,26.30
2023-02-17T20:11:10.121Z,26.20
2023-02-17T20:16:12.979Z,26.90
2023-02-17T20:21:19.736Z,26.40
2023-02-17T20:26:23.890Z,26.80
2023-02-17T20:31:27.014Z,27.30
2023-02-17T20:36:29.314Z,26.90
2023-02-17T20:41:31.367Z,27.40
2023-02-17T20:46:33.455Z,27.40
2023-02-17T20:51:35.672Z,27.20
2023-02-17T20:56:38.680Z,27.60
2023-02-17T21:01:41.440Z,27.70
2023-02-17T21:06:45.647Z,27.40
2023-02-17T21:11:47.941Z,28.00
2023-02-17T21:16:50.154Z,27.70
2023-02-17T21:21:52.181Z,28.10
2023-02-17T21:26:54.199Z,27.90
2023-02-17T21:31:56.379Z,28.40
2023-02-17T21:36:58.466Z,28.00
2023-02-17T21:42:00.484Z,28.40
2023-02-17T21:47:02.492Z,28.40
2023-02-17T21:52:05.009Z,28.40
2023-02-17T21:57:07.124Z,28.40
2023-02-17T22:02:10.701Z,28.40
2023-02-17T22:07:12.819Z,28.50
2023-02-17T22:12:14.826Z,28.20
2023-02-17T22:17:17.278Z,28.50
2023-02-17T22:22:19.308Z,28.60
2023-02-17T22:27:21.366Z,28.40
2023-02-17T22:32:23.498Z,28.80
2023-02-17T22:37:25.580Z,28.90
2023-02-17T22:42:28.041Z,28.80
2023-02-17T22:47:30.065Z,29.00
2023-02-17T22:52:32.089Z,28.90
2023-02-17T22:57:34.074Z,28.60
2023-02-17T23:02:36.120Z,28.90
2023-02-17T23:07:38.296Z,28.70
2023-02-17T23:12:40.296Z,28.90
2023-02-17T23:17:57.544Z,28.60
2023-02-17T23:22:59.557Z,28.80
2023-02-17T23:28:01.899Z,28.90
2023-02-17T23:33:03.984Z,28.60
2023-02-17T23:38:05.953Z,29.20
2023-02-17T23:43:08.390Z,28.50
2023-02-17T23:48:10.526Z,28.60
2023-02-17T23:53:12.587Z,28.30
2023-02-17T23:58:15.103Z,28.50
